KCAO/CAO METAR and TAF weather

Enter ICAO airport designator
Station Type Date Time Source
KCAO METAR 2018/01/23 00:55 UTC NOAA

KCAO 230055Z AUTO 28006KT 10SM CLR M02/M21 A3009 RMK AO2 SLP222 T10221206


Station Type Date Time Source
KCAO Decoded METAR 2018/01/23 00:55 UTC NOAA

CLAYTON MUNICIPAL AIRPARK, NM, United States (KCAO) 36-27N 103-09W 1514M
Jan 22, 2018 - 07:55 PM EST / 2018.01.23 0055 UTC
Wind: from the W (280 degrees) at 7 MPH (6 KT):0
Visibility: 10 mile(s):0
Sky conditions: clear
Temperature: 28.0 F (-2.2 C)
Windchill: 21 F (-6 C):1
Dew Point: -5.1 F (-20.6 C)
Relative Humidity: 22%
Pressure (altimeter): 30.09 in. Hg (1018 hPa)
ob: KCAO 230055Z AUTO 28006KT 10SM CLR M02/M21 A3009 RMK AO2 SLP222 T10221206
cycle: 1

Station Type Date Time Source
KCAO TAF UTC NOAA

Error!


Example: see airport list